createdAt,value
2023-05-19T00:01:22.618Z,0.40
2023-05-19T00:03:52.785Z,0.75
2023-05-19T00:06:29.434Z,0.40
2023-05-19T00:09:04.967Z,0.43
2023-05-19T00:11:32.530Z,0.50
2023-05-19T00:14:00.720Z,0.50
2023-05-19T00:16:29.723Z,0.55
2023-05-19T00:19:01.580Z,0.55
2023-05-19T00:21:29.790Z,0.50
2023-05-19T00:23:56.863Z,0.60
2023-05-19T00:26:25.123Z,0.70
2023-05-19T00:28:59.435Z,0.77
2023-05-19T00:31:26.627Z,0.40
2023-05-19T00:33:53.833Z,0.50
2023-05-19T00:36:21.184Z,0.60
2023-05-19T00:38:48.291Z,0.70
2023-05-19T00:41:15.460Z,0.75
2023-05-19T00:43:42.545Z,0.80
2023-05-19T00:46:11.128Z,0.60
2023-05-19T00:48:38.249Z,0.57
2023-05-19T00:51:06.657Z,0.80
2023-05-19T00:53:34.817Z,0.80
2023-05-19T00:56:03.213Z,0.75
2023-05-19T00:58:32.669Z,0.80
2023-05-19T01:01:04.777Z,0.63
2023-05-19T01:03:35.632Z,0.47
2023-05-19T01:06:07.362Z,0.57
2023-05-19T01:08:36.389Z,0.50
2023-05-19T01:11:07.993Z,0.50
2023-05-19T01:13:36.469Z,0.77
2023-05-19T01:16:27.049Z,0.90
2023-05-19T01:19:02.056Z,0.60
2023-05-19T01:21:50.431Z,0.40
2023-05-19T01:24:48.140Z,0.60
2023-05-19T01:27:15.279Z,0.73
2023-05-19T01:29:42.284Z,0.60
2023-05-19T01:32:11.952Z,0.70
2023-05-19T01:34:43.772Z,0.80
2023-05-19T01:37:13.636Z,0.73
2023-05-19T01:39:42.092Z,0.88
2023-05-19T01:42:09.580Z,0.80
2023-05-19T01:44:37.819Z,0.60
2023-05-19T01:47:05.492Z,0.80
2023-05-19T01:49:32.580Z,0.80
2023-05-19T01:51:59.661Z,0.70
2023-05-19T01:54:27.221Z,0.65
2023-05-19T01:57:20.019Z,0.70
2023-05-19T02:00:13.146Z,0.70
2023-05-19T02:03:08.146Z,0.70
2023-05-19T02:05:45.838Z,0.70
2023-05-19T02:08:16.573Z,0.70
2023-05-19T02:10:49.869Z,0.88
2023-05-19T02:13:20.524Z,0.77
2023-05-19T02:15:48.751Z,0.82
2023-05-19T02:18:18.037Z,1.15
2023-05-19T02:20:45.211Z,1.10
2023-05-19T02:23:12.242Z,0.90
2023-05-19T02:25:40.370Z,0.85
2023-05-19T02:28:07.397Z,0.80
2023-05-19T02:30:34.654Z,0.95
2023-05-19T02:33:01.893Z,0.98
2023-05-19T02:35:29.132Z,1.23
2023-05-19T02:37:56.185Z,1.20
2023-05-19T02:40:23.390Z,0.90
2023-05-19T02:42:50.438Z,1.10
2023-05-19T02:45:17.714Z,0.80
2023-05-19T02:47:44.774Z,1.50
2023-05-19T02:50:11.911Z,1.00
2023-05-19T02:52:39.050Z,0.70
2023-05-19T02:55:06.653Z,0.95
2023-05-19T02:57:35.372Z,1.00
2023-05-19T03:00:03.681Z,1.38
2023-05-19T03:02:33.445Z,0.77
2023-05-19T03:05:01.705Z,1.15
2023-05-19T03:07:28.844Z,1.33
2023-05-19T03:09:55.894Z,1.67
2023-05-19T03:12:22.973Z,1.00
2023-05-19T03:14:50.168Z,1.10
2023-05-19T03:17:17.333Z,1.35
2023-05-19T03:19:44.566Z,1.50
2023-05-19T03:22:11.642Z,1.13
2023-05-19T03:24:39.041Z,1.58
2023-05-19T03:27:06.251Z,1.20
2023-05-19T03:29:33.554Z,1.35
2023-05-19T03:32:00.760Z,0.82
2023-05-19T03:34:27.863Z,0.93
2023-05-19T03:36:57.125Z,0.95
2023-05-19T03:39:24.340Z,1.33
2023-05-19T03:41:52.056Z,1.77
2023-05-19T03:44:19.129Z,1.25
2023-05-19T03:46:46.272Z,0.82
2023-05-19T03:49:33.317Z,1.25
2023-05-19T03:52:19.114Z,1.38
2023-05-19T03:54:57.825Z,1.20
2023-05-19T03:57:24.959Z,1.00
2023-05-19T03:59:53.837Z,1.05
2023-05-19T04:02:21.926Z,1.35
2023-05-19T04:04:49.083Z,1.10
2023-05-19T04:07:16.226Z,1.20
2023-05-19T04:09:43.456Z,0.95
2023-05-19T04:12:10.726Z,1.30
2023-05-19T04:14:37.715Z,0.77
2023-05-19T04:17:05.569Z,1.10
2023-05-19T04:19:33.704Z,1.77
2023-05-19T04:22:02.032Z,1.75
2023-05-19T04:24:29.863Z,1.38
2023-05-19T04:26:57.192Z,1.27
2023-05-19T04:29:24.352Z,1.45
2023-05-19T04:31:53.012Z,1.23
2023-05-19T04:34:20.512Z,1.00
2023-05-19T04:36:48.572Z,1.23
2023-05-19T04:39:17.179Z,1.80
2023-05-19T04:41:46.028Z,1.17
2023-05-19T04:44:18.477Z,1.20
2023-05-19T04:46:48.428Z,1.38
2023-05-19T04:49:15.546Z,1.25
2023-05-19T04:51:42.808Z,1.20
2023-05-19T04:54:10.302Z,2.00
2023-05-19T04:56:37.811Z,1.40
2023-05-19T04:59:05.329Z,1.52
2023-05-19T05:01:33.905Z,1.30
2023-05-19T05:04:02.713Z,1.10
2023-05-19T05:06:31.818Z,1.10
2023-05-19T05:09:00.136Z,1.23
2023-05-19T05:11:27.722Z,1.40
2023-05-19T05:13:58.400Z,1.33
2023-05-19T05:16:27.853Z,1.00
2023-05-19T05:18:56.073Z,0.88
2023-05-19T05:21:23.920Z,1.55
2023-05-19T05:23:52.420Z,1.30
2023-05-19T05:26:24.585Z,1.30
2023-05-19T05:28:55.691Z,1.70
2023-05-19T05:31:23.025Z,1.30
2023-05-19T05:33:50.412Z,1.00
2023-05-19T05:36:20.919Z,1.33
2023-05-19T05:38:48.214Z,1.63
2023-05-19T05:41:16.151Z,1.98
2023-05-19T05:43:43.363Z,1.35
2023-05-19T05:46:10.900Z,1.17
2023-05-19T05:48:38.354Z,1.73
2023-05-19T05:51:06.409Z,1.88
2023-05-19T05:53:37.459Z,2.28
2023-05-19T05:56:05.140Z,1.38
2023-05-19T05:58:40.876Z,1.30
2023-05-19T06:01:11.299Z,1.90
2023-05-19T06:03:46.435Z,1.40
2023-05-19T06:06:18.790Z,1.13
2023-05-19T06:08:45.879Z,1.60
2023-05-19T06:11:13.098Z,1.67
2023-05-19T06:13:41.620Z,1.50
2023-05-19T06:16:12.305Z,1.48
2023-05-19T06:18:43.749Z,2.00
2023-05-19T06:21:13.517Z,1.73
2023-05-19T06:23:41.844Z,1.65
2023-05-19T06:26:10.749Z,1.50
2023-05-19T06:28:38.097Z,1.77
2023-05-19T06:31:06.123Z,1.60
2023-05-19T06:33:43.758Z,1.35
2023-05-19T06:36:10.947Z,1.40
2023-05-19T06:38:40.027Z,0.82
2023-05-19T06:41:07.439Z,1.63
2023-05-19T06:43:36.135Z,2.03
2023-05-19T06:46:04.098Z,1.73
2023-05-19T06:48:33.192Z,1.30
2023-05-19T06:51:00.742Z,2.00
2023-05-19T06:53:27.955Z,1.20
2023-05-19T06:55:59.786Z,1.92
2023-05-19T06:58:31.359Z,1.48
2023-05-19T07:01:01.345Z,1.90
2023-05-19T07:03:34.170Z,1.27
2023-05-19T07:06:01.778Z,1.88
2023-05-19T07:08:29.230Z,1.40
2023-05-19T07:10:59.457Z,2.38
2023-05-19T07:13:27.537Z,2.40
2023-05-19T07:15:56.042Z,1.10
2023-05-19T07:18:23.431Z,0.93
2023-05-19T07:20:53.861Z,1.42
2023-05-19T07:23:21.381Z,2.55
2023-05-19T07:25:48.440Z,2.30
2023-05-19T07:28:15.544Z,3.13
2023-05-19T07:30:42.665Z,1.83
2023-05-19T07:33:09.855Z,2.75
2023-05-19T07:35:37.061Z,1.85
2023-05-19T07:38:04.448Z,2.45
2023-05-19T07:40:31.737Z,2.50
2023-05-19T07:42:59.080Z,2.80
2023-05-19T07:45:26.236Z,3.42
2023-05-19T07:47:54.361Z,3.33
2023-05-19T07:50:21.624Z,2.67
2023-05-19T07:52:48.814Z,3.22
2023-05-19T07:55:16.216Z,2.80
2023-05-19T07:57:43.414Z,2.55
2023-05-19T08:00:11.995Z,3.72
2023-05-19T08:02:39.197Z,1.77
2023-05-19T08:05:06.882Z,2.97
2023-05-19T08:07:33.984Z,2.88
2023-05-19T08:10:01.298Z,2.92
2023-05-19T08:12:28.633Z,3.47
2023-05-19T08:14:55.937Z,4.30
2023-05-19T08:17:23.328Z,3.47
2023-05-19T08:19:50.712Z,2.90
2023-05-19T08:22:17.847Z,3.97
2023-05-19T08:24:45.192Z,2.50
2023-05-19T08:27:12.280Z,3.08
2023-05-19T08:29:39.475Z,2.80
2023-05-19T08:32:06.724Z,1.50
2023-05-19T08:34:33.832Z,3.33
2023-05-19T08:37:01.955Z,2.08
2023-05-19T08:39:29.007Z,1.88
2023-05-19T08:41:56.310Z,2.50
2023-05-19T08:44:23.596Z,2.38
2023-05-19T08:46:54.343Z,2.55
2023-05-19T08:49:28.053Z,1.90
2023-05-19T08:52:05.484Z,2.75
2023-05-19T08:54:54.665Z,3.45
2023-05-19T08:57:24.022Z,2.72
2023-05-19T08:59:53.065Z,2.38
2023-05-19T09:02:22.127Z,2.97
2023-05-19T09:04:49.528Z,2.15
2023-05-19T09:07:16.809Z,1.70
2023-05-19T09:09:44.194Z,2.63
2023-05-19T09:12:13.443Z,3.50
2023-05-19T09:14:40.583Z,2.17
2023-05-19T09:17:07.826Z,2.00
2023-05-19T09:19:34.969Z,1.75
2023-05-19T09:22:06.404Z,1.70
2023-05-19T09:24:34.825Z,1.55
2023-05-19T09:27:02.296Z,2.80
2023-05-19T09:29:29.392Z,2.97
2023-05-19T09:32:00.984Z,1.67
2023-05-19T09:34:28.340Z,1.60
2023-05-19T09:36:55.764Z,1.45
2023-05-19T09:39:24.203Z,2.13
2023-05-19T09:41:56.213Z,2.05
2023-05-19T09:44:24.858Z,1.45
2023-05-19T09:46:53.266Z,1.45
2023-05-19T09:49:25.418Z,1.23
2023-05-19T09:51:56.833Z,1.52
2023-05-19T09:54:25.088Z,1.60
2023-05-19T09:56:59.683Z,1.83
2023-05-19T09:59:29.925Z,1.77
2023-05-19T10:02:00.198Z,2.28
2023-05-19T10:04:28.907Z,1.60
2023-05-19T10:07:01.221Z,2.00
2023-05-19T10:09:30.055Z,1.73
2023-05-19T10:11:58.363Z,1.85
2023-05-19T10:14:27.546Z,1.65
2023-05-19T10:16:56.517Z,1.80
2023-05-19T10:19:29.227Z,1.70
2023-05-19T10:21:57.121Z,2.53
2023-05-19T10:24:24.290Z,1.73
2023-05-19T10:27:17.465Z,2.13
2023-05-19T10:29:50.001Z,1.92
2023-05-19T10:32:30.521Z,1.88
2023-05-19T10:34:57.881Z,1.20
2023-05-19T10:37:51.524Z,1.67
2023-05-19T10:40:25.121Z,2.60
2023-05-19T10:43:31.205Z,1.73
2023-05-19T10:45:58.585Z,2.05
2023-05-19T10:48:25.791Z,1.65
2023-05-19T10:50:57.166Z,1.55
2023-05-19T10:53:34.403Z,1.70
2023-05-19T10:56:07.146Z,1.65
2023-05-19T10:58:39.356Z,1.85
2023-05-19T11:01:13.592Z,1.65
2023-05-19T11:03:52.290Z,1.25
2023-05-19T11:06:30.004Z,1.58
2023-05-19T11:09:07.507Z,1.55
2023-05-19T11:11:51.100Z,1.40
2023-05-19T11:14:23.382Z,1.75
2023-05-19T11:16:52.166Z,1.30
2023-05-19T11:19:26.607Z,1.65
2023-05-19T11:21:57.581Z,2.83
2023-05-19T11:24:33.910Z,1.75
2023-05-19T11:27:20.759Z,3.17
2023-05-19T11:29:49.149Z,2.13
2023-05-19T11:32:16.558Z,1.85
2023-05-19T11:34:45.538Z,1.92
2023-05-19T11:37:12.748Z,4.88
2023-05-19T11:39:40.707Z,2.58
2023-05-19T11:42:11.409Z,1.90
2023-05-19T11:44:38.682Z,1.90
2023-05-19T11:47:06.298Z,1.52
2023-05-19T11:49:33.672Z,1.73
2023-05-19T11:52:04.144Z,2.28
2023-05-19T11:54:32.978Z,2.20
2023-05-19T11:57:04.641Z,1.88
2023-05-19T11:59:36.553Z,2.15
2023-05-19T12:02:14.031Z,1.73
2023-05-19T12:04:41.393Z,2.75
2023-05-19T12:07:08.776Z,1.77
2023-05-19T12:09:37.243Z,2.25
2023-05-19T12:12:05.127Z,2.30
2023-05-19T12:14:32.286Z,2.03
2023-05-19T12:16:59.565Z,2.08
2023-05-19T12:19:27.201Z,2.30
2023-05-19T12:21:54.380Z,2.00
2023-05-19T12:24:22.348Z,2.00
2023-05-19T12:26:50.423Z,1.98
2023-05-19T12:29:17.729Z,2.55
2023-05-19T12:31:47.054Z,2.00
2023-05-19T12:34:14.359Z,2.47
2023-05-19T12:36:41.842Z,1.73
2023-05-19T12:39:09.639Z,3.08
2023-05-19T12:41:37.628Z,2.25
2023-05-19T12:44:15.309Z,2.20
2023-05-19T12:46:42.614Z,2.58
2023-05-19T12:49:10.008Z,2.10
2023-05-19T12:51:37.500Z,2.67
2023-05-19T12:54:05.055Z,2.38
2023-05-19T12:56:32.237Z,1.98
2023-05-19T12:59:01.132Z,2.00
2023-05-19T13:01:30.568Z,1.58
2023-05-19T13:03:57.796Z,2.05
2023-05-19T13:06:24.971Z,2.00
2023-05-19T13:08:52.027Z,1.55
2023-05-19T13:11:19.249Z,1.80
2023-05-19T13:13:46.399Z,1.33
2023-05-19T13:16:13.612Z,2.10
2023-05-19T13:18:40.825Z,1.63
2023-05-19T13:21:07.939Z,1.75
2023-05-19T13:23:35.024Z,1.98
2023-05-19T13:26:04.961Z,1.63
2023-05-19T13:28:32.151Z,1.38
2023-05-19T13:30:59.622Z,1.55
2023-05-19T13:33:26.720Z,1.60
2023-05-19T13:35:54.154Z,1.75
2023-05-19T13:38:21.260Z,1.45
2023-05-19T13:40:48.293Z,1.70
2023-05-19T13:43:15.378Z,1.77
2023-05-19T13:45:44.562Z,1.80
2023-05-19T13:48:12.288Z,1.60
2023-05-19T13:50:39.475Z,1.60
2023-05-19T13:53:06.670Z,2.05
2023-05-19T13:55:33.802Z,1.50
2023-05-19T13:58:01.036Z,1.75
2023-05-19T14:00:28.593Z,1.52
2023-05-19T14:02:56.057Z,1.77
2023-05-19T14:05:23.216Z,1.50
2023-05-19T14:07:50.353Z,1.75
2023-05-19T14:10:17.763Z,1.58
2023-05-19T14:13:08.025Z,1.50
2023-05-19T14:15:37.590Z,2.08
2023-05-19T14:18:05.563Z,1.50
2023-05-19T14:20:34.448Z,2.72
2023-05-19T14:23:01.649Z,2.08
2023-05-19T14:25:28.741Z,2.20
2023-05-19T14:27:55.865Z,1.88
2023-05-19T14:30:22.881Z,2.83
2023-05-19T14:32:50.068Z,1.67
2023-05-19T14:35:17.242Z,1.98
2023-05-19T14:37:44.368Z,1.70
2023-05-19T14:40:12.157Z,2.00
2023-05-19T14:42:39.268Z,1.40
2023-05-19T14:45:06.874Z,2.65
2023-05-19T14:47:33.987Z,2.05
2023-05-19T14:50:01.063Z,2.35
2023-05-19T14:52:28.168Z,2.28
2023-05-19T14:54:56.190Z,2.55
2023-05-19T14:57:23.349Z,2.20
2023-05-19T14:59:50.599Z,1.95
2023-05-19T15:02:17.777Z,2.05
2023-05-19T15:04:44.824Z,1.75
2023-05-19T15:07:12.050Z,1.75
2023-05-19T15:09:39.633Z,1.77
2023-05-19T15:12:06.723Z,2.08
2023-05-19T15:14:33.762Z,2.40
2023-05-19T15:17:00.867Z,1.80
2023-05-19T15:19:28.057Z,2.05
2023-05-19T15:21:55.315Z,2.03
2023-05-19T15:24:22.778Z,2.17
2023-05-19T15:26:49.991Z,1.60
2023-05-19T15:29:17.023Z,2.50
2023-05-19T15:31:44.146Z,2.38
2023-05-19T15:34:11.236Z,1.80
2023-05-19T15:36:38.387Z,2.22
2023-05-19T15:39:06.842Z,1.63
2023-05-19T15:41:33.967Z,1.85
2023-05-19T15:44:02.340Z,1.52
2023-05-19T15:46:30.559Z,1.60
2023-05-19T15:48:57.737Z,1.75
2023-05-19T15:51:25.116Z,1.83
2023-05-19T15:53:52.647Z,2.33
2023-05-19T15:56:19.777Z,1.98
2023-05-19T15:58:46.923Z,2.05
2023-05-19T16:01:15.003Z,1.33
2023-05-19T16:03:42.511Z,1.77
2023-05-19T16:06:09.869Z,2.13
2023-05-19T16:08:39.622Z,2.03
2023-05-19T16:11:06.910Z,2.15
2023-05-19T16:13:34.030Z,2.25
2023-05-19T16:16:01.558Z,1.98
2023-05-19T16:18:31.642Z,1.50
2023-05-19T16:20:58.705Z,1.58
2023-05-19T16:23:25.783Z,1.48
2023-05-19T16:25:54.662Z,1.30
2023-05-19T16:28:23.907Z,1.40
2023-05-19T16:30:51.965Z,1.67
2023-05-19T16:33:18.988Z,1.67
2023-05-19T16:35:46.224Z,2.30
2023-05-19T16:38:13.298Z,1.85
2023-05-19T16:40:40.379Z,1.50
2023-05-19T16:43:07.392Z,1.38
2023-05-19T16:45:34.575Z,1.70
2023-05-19T16:48:01.761Z,1.50
2023-05-19T16:50:29.005Z,2.78
2023-05-19T16:52:56.225Z,1.40
2023-05-19T16:55:25.359Z,1.90
2023-05-19T16:57:52.419Z,2.63
2023-05-19T17:00:19.943Z,1.75
2023-05-19T17:02:47.251Z,1.40
2023-05-19T17:05:14.422Z,1.50
2023-05-19T17:07:41.484Z,1.40
2023-05-19T17:10:09.216Z,1.10
2023-05-19T17:12:36.964Z,1.10
2023-05-19T17:15:04.571Z,1.63
2023-05-19T17:17:31.694Z,1.55
2023-05-19T17:19:58.933Z,1.23
2023-05-19T17:22:27.374Z,1.42
2023-05-19T17:24:55.395Z,1.48
2023-05-19T17:27:22.421Z,1.63
2023-05-19T17:29:49.589Z,1.27
2023-05-19T17:32:16.767Z,2.05
2023-05-19T17:34:43.950Z,1.33
2023-05-19T17:37:11.114Z,2.00
2023-05-19T17:39:38.171Z,1.60
2023-05-19T17:42:06.001Z,1.45
2023-05-19T17:44:33.063Z,1.60
2023-05-19T17:47:01.640Z,1.90
2023-05-19T17:49:28.705Z,1.70
2023-05-19T17:51:56.103Z,1.40
2023-05-19T17:54:26.176Z,1.60
2023-05-19T17:56:55.414Z,1.40
2023-05-19T17:59:22.724Z,1.45
2023-05-19T18:01:50.008Z,1.77
2023-05-19T18:04:17.529Z,1.40
2023-05-19T18:06:47.960Z,1.67
2023-05-19T18:09:18.966Z,1.55
2023-05-19T18:11:46.971Z,1.08
2023-05-19T18:14:14.054Z,1.42
2023-05-19T18:16:41.236Z,1.33
2023-05-19T18:19:08.530Z,1.40
2023-05-19T18:21:35.588Z,1.33
2023-05-19T18:24:04.363Z,1.50
2023-05-19T18:26:33.209Z,1.42
2023-05-19T18:29:02.866Z,1.65
2023-05-19T18:31:30.071Z,1.50
2023-05-19T18:33:57.156Z,1.55
2023-05-19T18:37:15.196Z,1.05
2023-05-19T18:39:42.304Z,1.40
2023-05-19T18:42:09.411Z,1.65
2023-05-19T18:44:36.440Z,1.80
2023-05-19T18:47:03.554Z,1.40
2023-05-19T18:49:30.916Z,1.50
2023-05-19T18:51:57.983Z,1.63
2023-05-19T18:54:25.178Z,1.35
2023-05-19T18:56:52.217Z,1.73
2023-05-19T18:59:19.304Z,1.50
2023-05-19T19:01:46.447Z,0.95
2023-05-19T19:04:14.918Z,1.23
2023-05-19T19:06:43.823Z,1.42
2023-05-19T19:09:11.300Z,1.98
2023-05-19T19:11:38.566Z,1.38
2023-05-19T19:14:05.776Z,1.25
2023-05-19T19:16:33.121Z,1.42
2023-05-19T19:19:00.434Z,1.00
2023-05-19T19:21:29.714Z,1.00
2023-05-19T19:23:57.809Z,1.50
2023-05-19T19:26:26.931Z,1.92
2023-05-19T19:28:54.115Z,1.33
2023-05-19T19:31:21.365Z,1.75
2023-05-19T19:33:49.835Z,1.40
2023-05-19T19:36:16.824Z,1.25
2023-05-19T19:38:43.930Z,1.25
2023-05-19T19:41:11.061Z,1.63
2023-05-19T19:43:38.202Z,1.73
2023-05-19T19:46:07.163Z,1.77
2023-05-19T19:48:34.292Z,1.40
2023-05-19T19:51:01.315Z,1.27
2023-05-19T19:53:28.502Z,1.88
2023-05-19T19:56:02.825Z,1.23
2023-05-19T19:58:30.046Z,1.40
2023-05-19T20:00:58.421Z,1.55
2023-05-19T20:03:26.118Z,1.63
2023-05-19T20:05:54.816Z,1.55
2023-05-19T20:08:22.184Z,1.40
2023-05-19T20:10:49.463Z,1.45
2023-05-19T20:13:16.943Z,1.70
2023-05-19T20:15:45.075Z,1.88
2023-05-19T20:18:13.356Z,1.67
2023-05-19T20:20:41.133Z,1.50
2023-05-19T20:23:08.894Z,1.58
2023-05-19T20:25:54.479Z,1.50
2023-05-19T20:28:29.102Z,1.75
2023-05-19T20:30:56.229Z,1.70
2023-05-19T20:33:23.385Z,1.15
2023-05-19T20:35:50.361Z,1.42
2023-05-19T20:38:17.429Z,1.58
2023-05-19T20:40:44.447Z,1.80
2023-05-19T20:43:11.472Z,1.60
2023-05-19T20:45:38.706Z,1.15
2023-05-19T20:48:06.374Z,1.65
2023-05-19T20:50:33.703Z,1.35
2023-05-19T20:53:01.132Z,1.35
2023-05-19T20:55:28.329Z,1.38
2023-05-19T20:57:55.475Z,1.88
2023-05-19T21:00:22.670Z,1.50
2023-05-19T21:02:49.853Z,1.80
2023-05-19T21:05:16.869Z,1.50
2023-05-19T21:07:44.105Z,1.77
2023-05-19T21:10:13.814Z,1.92
2023-05-19T21:12:40.966Z,2.30
2023-05-19T21:15:08.652Z,1.88
2023-05-19T21:17:35.893Z,1.30
2023-05-19T21:20:03.808Z,1.98
2023-05-19T21:22:31.027Z,1.40
2023-05-19T21:24:58.168Z,1.58
2023-05-19T21:27:25.638Z,1.40
2023-05-19T21:29:53.826Z,1.58
2023-05-19T21:32:21.633Z,1.17
2023-05-19T21:34:48.897Z,1.30
2023-05-19T21:37:17.392Z,1.45
2023-05-19T21:39:44.959Z,2.17
2023-05-19T21:42:12.442Z,1.42
2023-05-19T21:44:39.595Z,1.50
2023-05-19T21:47:07.121Z,0.98
2023-05-19T21:49:34.208Z,1.30
2023-05-19T21:52:01.305Z,1.38
2023-05-19T21:54:28.386Z,1.58
2023-05-19T21:56:55.483Z,1.30
2023-05-19T21:59:24.758Z,1.20
2023-05-19T22:01:52.487Z,1.33
2023-05-19T22:04:21.267Z,1.42
2023-05-19T22:06:48.465Z,1.50
2023-05-19T22:09:15.551Z,1.50
2023-05-19T22:11:42.840Z,1.50
2023-05-19T22:14:09.937Z,1.63
2023-05-19T22:16:37.178Z,1.33
2023-05-19T22:19:04.299Z,1.20
2023-05-19T22:21:32.039Z,1.35
2023-05-19T22:23:59.077Z,1.75
2023-05-19T22:26:26.179Z,1.48
2023-05-19T22:28:53.492Z,1.50
2023-05-19T22:31:20.756Z,0.95
2023-05-19T22:33:48.077Z,1.20
2023-05-19T22:36:16.293Z,0.95
2023-05-19T22:38:43.372Z,1.20
2023-05-19T22:41:10.552Z,1.67
2023-05-19T22:43:38.020Z,1.30
2023-05-19T22:46:05.504Z,1.63
2023-05-19T22:48:32.584Z,1.08
2023-05-19T22:50:59.766Z,1.58
2023-05-19T22:53:26.833Z,1.08
2023-05-19T22:55:53.949Z,1.42
2023-05-19T22:58:21.028Z,1.13
2023-05-19T23:00:48.298Z,1.40
2023-05-19T23:03:15.722Z,1.40
2023-05-19T23:05:43.205Z,1.30
2023-05-19T23:08:10.324Z,1.00
2023-05-19T23:10:37.960Z,1.00
2023-05-19T23:13:05.027Z,1.45
2023-05-19T23:15:32.646Z,1.30
2023-05-19T23:18:01.396Z,1.20
2023-05-19T23:20:28.564Z,1.25
2023-05-19T23:22:55.711Z,1.90
2023-05-19T23:25:22.828Z,0.90
2023-05-19T23:27:49.837Z,1.15
2023-05-19T23:30:16.973Z,1.23
2023-05-19T23:32:44.171Z,1.63
2023-05-19T23:35:16.749Z,1.85
2023-05-19T23:37:44.035Z,1.30
2023-05-19T23:40:11.672Z,1.20
2023-05-19T23:42:38.921Z,1.38
2023-05-19T23:45:06.473Z,1.90
2023-05-19T23:47:33.607Z,1.48
2023-05-19T23:50:00.666Z,1.35
2023-05-19T23:52:27.772Z,1.80
2023-05-19T23:54:54.791Z,1.00
2023-05-19T23:57:21.866Z,1.15
2023-05-19T23:59:48.937Z,1.10
